Etusivu
METAR-TAF:

METAR-TAF

Lentoasemat :

Owen Robertsin kansainvälinen lentoasema

George Town, Grand Cayman, Caymansaaret

Leveyspiiri: 19-17N, Pituuspiiri: 081-21W, korkeus merenpinnasta: 3 m

Tämänhetkinen sää

Tämä raportti tehtiin 3 tuntia ja 30 minuuttia sitten, kello 03.00 UTC
Tuuli 2 kn eri suunnista
Lämpötila 24°C
Kosteus 78%
Ilmanpaine 1017 hPa
Näkyvyys 10 km tai enemmän
Muutamia pilviä 1800 ft:n korkeudessa

METAR: MWCR 260300Z VRB02KT 9999 FEW018 24/20 Q1017

Aika: 01:30 (06:30 UTC)

Sääennuste

Tämä raportti tehtiin 7 tuntia ja 30 minuuttia sitten, kello 23.00 UTC
Ennuste voimassa 26. päivästä klo 00 UTC - 26. päivään klo 24 UTC
Tuuli 8 kn pohjoisesta/koillisesta
Näkyvyys 10 km tai enemmän
Muutamia pilviä 2000 ft:n korkeudessa
Hajanaisia pilviä 3000 ft:n korkeudessa

TAF: MWCR 252300Z 2600/2624 03008KT 9999 FEW020 SCT030

Säähavainnot ja -ennusteet yli 4000 lentoasemalta (METAR- ja TAF-raportit).

Käytössä olevat sääasemat on merkitty karttaan keltaisilla ja punaisilla pisteillä.

Aseta hiiri pisteen päälle nähdäksesi sääaseman nimen.

Klikkaa sitten nähdäksesi säähavainnot ja -ennusteet.

Kartan vaihtaminen: klikkaa mustalla rastilla varustettuja vihreitä pisteitä, niin voit zoomata sisään; viivalla varustettua vihreää pistettä, niin voit zoomata ulos tai vihreitä nuolia, niin pääset viereisille kartoille.


METAR-TAF: